Time;durP1;ratioP1;P1;durP2;ratioP2;P2;SDS_P1;SDS_P2;PMS_P1;PMS_P2;Temp;Humidity;BMP_temperature;BMP_pressure;BME280_temperature;BME280_humidity;BME280_pressure;Samples;Min_cycle;Max_cycle;Signal;HPM_P1;HPM_P2
2022/12/13 00:01:41;;;;;;;24.63;12.65;;;-6.80;98.00;;;;;;5034427;28;20028;-64
2022/12/13 00:04:09;;;;;;;25.92;13.40;;;-6.90;98.00;;;;;;5031272;28;20029;-65
2022/12/13 00:06:43;;;;;;;24.17;13.13;;;-7.00;98.00;;;;;;5035306;28;20109;-64
2022/12/13 00:09:17;;;;;;;26.08;14.38;;;-7.00;98.00;;;;;;5029838;28;20334;-64
2022/12/13 00:11:44;;;;;;;29.42;13.93;;;-6.90;98.00;;;;;;5033791;28;20037;-64
2022/12/13 00:14:12;;;;;;;27.08;15.32;;;-6.80;98.00;;;;;;5034042;28;20053;-64
2022/12/13 00:16:38;;;;;;;23.67;13.45;;;-6.80;98.00;;;;;;5035489;28;20112;-64
2022/12/13 00:19:04;;;;;;;25.58;13.63;;;-6.80;98.00;;;;;;5030555;28;20191;-64
2022/12/13 00:21:31;;;;;;;23.15;13.50;;;-6.70;98.00;;;;;;5026152;28;20388;-64
2022/12/13 00:23:58;;;;;;;25.77;14.65;;;-6.70;98.00;;;;;;5033968;28;20082;-64
2022/12/13 00:26:32;;;;;;;23.90;14.02;;;-6.60;98.00;;;;;;5033730;28;20060;-64
2022/12/13 00:29:06;;;;;;;23.30;13.48;;;-6.70;98.00;;;;;;5034369;28;20114;-64
2022/12/13 00:31:32;;;;;;;24.13;13.18;;;-6.70;98.00;;;;;;5034250;28;20026;-64
2022/12/13 00:33:58;;;;;;;25.00;14.23;;;-6.80;98.00;;;;;;5031615;28;20159;-64
2022/12/13 00:36:24;;;;;;;29.05;15.75;;;-6.80;98.00;;;;;;5041054;28;20049;-64
2022/12/13 00:38:59;;;;;;;26.98;14.63;;;-7.00;98.00;;;;;;5040607;28;20036;-64
2022/12/13 00:41:27;;;;;;;27.90;14.77;;;-7.40;98.00;;;;;;5035556;28;20171;-64
2022/12/13 00:43:52;;;;;;;25.55;14.27;;;-7.60;98.00;;;;;;5035152;28;20025;-64
2022/12/13 00:46:22;;;;;;;25.13;14.10;;;-7.70;98.00;;;;;;5030292;28;20029;-64
2022/12/13 00:48:55;;;;;;;25.02;15.15;;;-7.80;98.00;;;;;;5037769;28;20025;-64
2022/12/13 00:51:21;;;;;;;27.83;14.15;;;-7.70;98.00;;;;;;5036790;28;20033;-64
2022/12/13 00:53:50;;;;;;;25.00;14.23;;;-7.60;98.00;;;;;;5039948;28;20421;-64
2022/12/13 00:56:20;;;;;;;26.08;14.75;;;-7.30;98.00;;;;;;5036911;28;20030;-64
2022/12/13 00:58:46;;;;;;;20.10;12.35;;;-7.10;98.00;;;;;;5042131;28;20125;-64
2022/12/13 01:01:13;;;;;;;24.42;14.13;;;-7.00;98.00;;;;;;5043926;28;20029;-64
2022/12/13 01:03:39;;;;;;;27.00;13.63;;;-6.80;98.00;;;;;;5029402;28;20382;-64
2022/12/13 01:06:19;;;;;;;22.63;13.35;;;-6.90;98.00;;;;;;5036478;28;20093;-64
2022/12/13 01:08:45;;;;;;;21.50;12.30;;;-6.80;98.00;;;;;;5039041;28;20079;-64
2022/12/13 01:11:12;;;;;;;24.75;13.85;;;-6.80;98.00;;;;;;5036376;28;20026;-64
2022/12/13 01:13:37;;;;;;;23.60;12.82;;;-6.90;98.00;;;;;;5039784;28;20096;-64
2022/12/13 01:16:05;;;;;;;23.77;12.82;;;-6.80;98.00;;;;;;5037266;28;20105;-64
2022/12/13 01:18:31;;;;;;;24.02;13.18;;;-6.80;98.00;;;;;;5036028;28;20100;-64
2022/12/13 01:21:12;;;;;;;26.23;13.85;;;-6.80;98.00;;;;;;5035496;28;20103;-64
2022/12/13 01:23:38;;;;;;;24.33;13.02;;;-6.80;98.00;;;;;;5048622;28;20104;-63
2022/12/13 01:26:06;;;;;;;23.70;13.93;;;-6.80;98.00;;;;;;5035974;28;20104;-64
2022/12/13 01:28:32;;;;;;;23.27;12.38;;;-6.90;98.00;;;;;;5044221;28;20112;-64
2022/12/13 01:31:10;;;;;;;23.13;12.75;;;-6.80;98.00;;;;;;5047740;28;20029;-64
2022/12/13 01:33:36;;;;;;;21.02;12.15;;;-6.70;98.00;;;;;;5023381;28;20088;-64
2022/12/13 01:36:04;;;;;;;23.95;12.95;;;-6.60;98.00;;;;;;5032633;28;20038;-64
2022/12/13 01:38:30;;;;;;;21.55;12.38;;;-6.70;98.00;;;;;;5036644;28;20417;-64
2022/12/13 01:40:59;;;;;;;24.13;11.70;;;-6.70;98.00;;;;;;5032183;28;20104;-64
2022/12/13 01:43:49;;;;;;;21.15;12.55;;;-6.70;98.00;;;;;;5036036;28;20025;-64
2022/12/13 01:46:16;;;;;;;26.98;12.00;;;-6.70;98.00;;;;;;5037065;28;20091;-63
2022/12/13 01:49:09;;;;;;;20.70;11.93;;;-6.60;98.00;;;;;;5034870;28;20469;-65
2022/12/13 01:51:45;;;;;;;22.07;11.27;;;-6.60;98.00;;;;;;5044570;28;20127;-64
2022/12/13 01:54:16;;;;;;;20.98;11.77;;;-6.70;98.00;;;;;;5021087;28;20272;-64
2022/12/13 01:56:50;;;;;;;23.23;11.23;;;-6.70;98.00;;;;;;5037447;28;20350;-65
2022/12/13 01:59:18;;;;;;;22.92;11.35;;;-6.70;98.00;;;;;;5035646;28;20025;-64
2022/12/13 02:01:45;;;;;;;18.25;10.57;;;-6.70;98.00;;;;;;5043316;28;20125;-64
2022/12/13 02:04:10;;;;;;;20.15;9.63;;;-6.60;98.00;;;;;;5026441;28;20029;-64
2022/12/13 02:06:40;;;;;;;19.05;10.50;;;-6.70;98.00;;;;;;5038176;28;20288;-65
2022/12/13 02:09:07;;;;;;;17.92;10.23;;;-6.60;98.00;;;;;;5047273;28;20100;-64
2022/12/13 02:11:35;;;;;;;18.60;9.80;;;-6.70;98.00;;;;;;5023933;28;20037;-64
2022/12/13 02:14:04;;;;;;;17.70;9.95;;;-6.60;98.00;;;;;;5026596;28;20121;-64
2022/12/13 02:16:54;;;;;;;17.30;9.63;;;-6.60;98.00;;;;;;5035856;28;20032;-64
2022/12/13 02:19:50;;;;;;;15.27;8.55;;;-6.60;97.80;;;;;;5034320;28;20033;-64
2022/12/13 02:22:31;;;;;;;19.63;10.13;;;-6.70;97.70;;;;;;5027700;28;20330;-64
2022/12/13 02:25:38;;;;;;;17.05;9.48;;;-6.60;97.60;;;;;;5034769;28;20030;-64
2022/12/13 02:28:29;;;;;;;18.73;9.52;;;-6.70;97.40;;;;;;5004302;28;20359;-64
2022/12/13 02:31:25;;;;;;;19.05;9.73;;;-6.80;97.50;;;;;;5024103;28;20120;-64
2022/12/13 02:33:56;;;;;;;19.10;9.63;;;-6.80;97.80;;;;;;5027080;28;20037;-64
2022/12/13 02:36:36;;;;;;;19.92;9.73;;;-6.80;97.70;;;;;;5036453;28;20349;-64
2022/12/13 02:39:16;;;;;;;17.55;9.77;;;-6.70;97.40;;;;;;5036483;28;20033;-63
2022/12/13 02:41:57;;;;;;;17.45;10.13;;;-6.70;97.20;;;;;;5038542;28;20364;-64
2022/12/13 02:44:33;;;;;;;18.17;9.15;;;-6.80;97.40;;;;;;5047608;28;20479;-63
2022/12/13 02:47:16;;;;;;;15.27;8.18;;;-6.80;97.10;;;;;;5014355;28;20025;-66
2022/12/13 02:49:46;;;;;;;19.70;9.52;;;-6.80;97.10;;;;;;5035003;28;20040;-65
2022/12/13 02:52:19;;;;;;;15.60;8.75;;;-6.80;97.10;;;;;;5035677;28;20385;-65
2022/12/13 02:54:46;;;;;;;18.00;9.23;;;-6.80;96.90;;;;;;5034329;28;20025;-65
2022/12/13 02:57:27;;;;;;;15.35;8.90;;;-6.90;96.90;;;;;;5035233;28;20362;-65
2022/12/13 02:59:52;;;;;;;17.00;9.13;;;-6.90;96.70;;;;;;5034869;28;20037;-65
2022/12/13 03:02:45;;;;;;;15.80;8.77;;;-6.90;96.80;;;;;;5036443;28;20033;-65
2022/12/13 03:08:26;;;;;;;16.15;8.43;;;-6.90;96.40;;;;;;5034172;28;20048;-65
2022/12/13 03:10:55;;;;;;;17.20;8.60;;;-6.90;96.10;;;;;;5038646;28;20108;-64
2022/12/13 03:13:37;;;;;;;14.85;7.85;;;-6.90;96.30;;;;;;5033649;28;20033;-64
2022/12/13 03:16:20;;;;;;;12.50;6.85;;;-6.80;96.20;;;;;;5034617;28;20021;-64
2022/12/13 03:18:46;;;;;;;16.33;8.10;;;-6.80;96.10;;;;;;5036474;28;20030;-64
2022/12/13 03:21:12;;;;;;;15.63;7.05;;;-6.80;95.90;;;;;;5032534;28;20068;-64
2022/12/13 03:23:39;;;;;;;14.40;7.60;;;-6.70;95.70;;;;;;5033904;28;21807;-64
2022/12/13 03:26:15;;;;;;;14.75;6.15;;;-6.80;95.50;;;;;;5042222;28;20108;-64
2022/12/13 03:28:41;;;;;;;11.20;6.40;;;-6.80;95.80;;;;;;5016145;28;20422;-65
2022/12/13 03:31:07;;;;;;;13.55;7.50;;;-6.60;95.60;;;;;;5033540;28;20025;-65
2022/12/13 03:33:33;;;;;;;12.95;7.53;;;-6.60;95.40;;;;;;5044172;28;20373;-65
2022/12/13 03:36:02;;;;;;;14.45;7.32;;;-6.70;95.40;;;;;;5015293;28;20125;-64
2022/12/13 03:38:28;;;;;;;16.55;8.68;;;-6.80;95.40;;;;;;5033201;28;20468;-65
2022/12/13 03:41:04;;;;;;;13.80;7.50;;;-6.90;95.80;;;;;;5034257;28;20072;-65
2022/12/13 03:43:30;;;;;;;12.43;6.63;;;-6.90;95.90;;;;;;5033638;28;20037;-64
2022/12/13 03:45:55;;;;;;;13.35;6.80;;;-7.00;96.00;;;;;;5017344;28;20041;-64
2022/12/13 03:48:22;;;;;;;21.00;9.93;;;-6.80;96.00;;;;;;5050664;28;20063;-64
2022/12/13 03:50:47;;;;;;;15.50;8.95;;;-6.80;95.80;;;;;;5042900;28;20033;-65
2022/12/13 03:53:13;;;;;;;17.38;8.90;;;-6.90;96.00;;;;;;5033839;28;20036;-65
2022/12/13 03:55:38;;;;;;;15.00;8.50;;;-7.00;96.10;;;;;;5030934;28;20455;-65
2022/12/13 03:58:04;;;;;;;27.27;14.05;;;-7.20;96.40;;;;;;5032498;28;20109;-65
2022/12/13 04:00:30;;;;;;;106.78;46.47;;;-7.40;96.80;;;;;;5020169;28;20037;-64
2022/12/13 04:02:55;;;;;;;74.57;31.70;;;-7.70;97.00;;;;;;5046968;28;20091;-65
2022/12/13 04:05:21;;;;;;;24.92;12.50;;;-8.10;97.60;;;;;;5033520;28;20036;-65
2022/12/13 04:07:46;;;;;;;19.27;9.57;;;-8.20;98.00;;;;;;5044732;28;20052;-65
2022/12/13 04:10:12;;;;;;;14.45;8.18;;;-7.90;98.00;;;;;;5034478;28;20044;-65
2022/12/13 04:15:22;;;;;;;24.13;11.32;;;-7.60;98.00;;;;;;5026442;28;20083;-65
2022/12/13 04:17:47;;;;;;;41.72;21.35;;;-7.70;98.00;;;;;;5039242;28;20061;-65
2022/12/13 04:20:13;;;;;;;27.10;13.50;;;-7.80;98.00;;;;;;5034136;28;20048;-65
2022/12/13 04:22:39;;;;;;;17.30;9.30;;;-7.80;98.00;;;;;;5033462;28;20095;-65
2022/12/13 04:25:05;;;;;;;17.75;9.10;;;-7.70;98.00;;;;;;5025242;28;20034;-65
2022/12/13 04:27:30;;;;;;;22.48;11.60;;;-7.50;98.00;;;;;;5038883;28;20053;-64
2022/12/13 04:29:56;;;;;;;14.30;8.65;;;-7.50;98.00;;;;;;5032800;28;20037;-65
2022/12/13 04:32:22;;;;;;;17.48;9.38;;;-7.50;98.00;;;;;;5035911;28;20090;-65
2022/12/13 04:34:47;;;;;;;16.05;8.90;;;-7.40;98.00;;;;;;5031201;28;20041;-64
2022/12/13 04:37:13;;;;;;;18.98;9.75;;;-7.30;98.00;;;;;;5041433;28;20432;-64
2022/12/13 04:39:38;;;;;;;17.20;9.35;;;-7.30;97.50;;;;;;5030989;28;20103;-64
2022/12/13 04:42:04;;;;;;;19.35;9.85;;;-7.30;97.30;;;;;;5032411;28;20436;-65
2022/12/13 04:44:30;;;;;;;19.67;9.35;;;-7.40;97.50;;;;;;5026207;28;20052;-64
2022/12/13 04:46:56;;;;;;;19.08;9.95;;;-7.30;97.70;;;;;;5037521;28;20051;-65
2022/12/13 04:49:21;;;;;;;24.85;11.77;;;-7.20;97.30;;;;;;5037630;28;20406;-65
2022/12/13 04:51:50;;;;;;;18.15;8.75;;;-7.10;96.90;;;;;;5041254;28;20021;-65
2022/12/13 04:54:15;;;;;;;25.77;13.18;;;-7.20;96.70;;;;;;5036281;28;20033;-65
2022/12/13 04:56:41;;;;;;;16.38;8.48;;;-7.40;96.80;;;;;;5038739;28;20038;-65
2022/12/13 04:59:06;;;;;;;28.77;16.27;;;-7.40;97.30;;;;;;5038230;28;20036;-65
2022/12/13 05:01:33;;;;;;;24.42;12.93;;;-7.40;97.10;;;;;;5036660;28;20045;-64
2022/12/13 05:04:00;;;;;;;27.10;14.75;;;-7.60;97.00;;;;;;5022972;28;20065;-65
2022/12/13 05:06:26;;;;;;;19.67;10.43;;;-8.00;97.20;;;;;;5030114;28;20292;-64
2022/12/13 05:08:51;;;;;;;20.52;11.88;;;-8.20;97.80;;;;;;5037933;28;20029;-65
2022/12/13 05:11:20;;;;;;;19.73;10.88;;;-8.20;98.00;;;;;;5037323;28;20372;-65
2022/12/13 05:13:45;;;;;;;21.20;11.15;;;-8.30;98.00;;;;;;5037349;28;20433;-65
2022/12/13 05:16:11;;;;;;;19.73;10.43;;;-8.40;98.00;;;;;;5017462;28;20101;-65
2022/12/13 05:18:37;;;;;;;18.42;10.15;;;-8.50;98.00;;;;;;5033378;28;20030;-65
2022/12/13 05:21:08;;;;;;;17.48;9.93;;;-8.40;98.00;;;;;;5036537;28;20430;-64
2022/12/13 05:23:34;;;;;;;21.77;11.98;;;-8.10;98.00;;;;;;5034303;28;20113;-64
2022/12/13 05:26:02;;;;;;;26.02;13.73;;;-7.80;98.00;;;;;;5032442;28;20167;-64
2022/12/13 05:28:29;;;;;;;22.58;11.35;;;-8.00;98.00;;;;;;5042745;28;20419;-64
2022/12/13 05:30:58;;;;;;;18.40;10.35;;;-8.20;98.00;;;;;;5032090;28;20041;-64
2022/12/13 05:33:24;;;;;;;20.05;11.30;;;-8.20;98.00;;;;;;5022903;28;21497;-64
2022/12/13 05:35:50;;;;;;;20.80;9.45;;;-8.40;98.00;;;;;;5035785;28;20029;-63
2022/12/13 05:38:19;;;;;;;24.08;12.68;;;-8.10;98.00;;;;;;5035284;28;20060;-63
2022/12/13 05:40:45;;;;;;;24.42;12.70;;;-7.90;98.00;;;;;;5034455;28;20033;-64
2022/12/13 05:43:11;;;;;;;27.52;14.48;;;-8.10;98.00;;;;;;5042521;28;20040;-66
2022/12/13 05:45:36;;;;;;;20.20;11.35;;;-8.20;98.00;;;;;;5046876;28;20029;-64
2022/12/13 05:48:05;;;;;;;22.90;11.05;;;-8.20;98.00;;;;;;5037071;28;20041;-65
2022/12/13 05:50:31;;;;;;;22.13;11.98;;;-8.10;98.00;;;;;;5035371;28;20032;-66
2022/12/13 05:53:00;;;;;;;18.33;9.85;;;-8.00;98.00;;;;;;5037297;28;20026;-66
2022/12/13 05:55:25;;;;;;;18.92;9.73;;;-7.90;98.00;;;;;;5019459;28;20057;-66
2022/12/13 05:57:51;;;;;;;22.25;10.82;;;-7.80;98.00;;;;;;5043497;28;20111;-66
2022/12/13 06:00:17;;;;;;;21.63;12.60;;;-7.70;98.00;;;;;;5033580;28;20037;-65
2022/12/13 06:02:43;;;;;;;24.58;12.75;;;-7.80;98.00;;;;;;5034568;28;20033;-65
2022/12/13 06:05:10;;;;;;;22.13;11.40;;;-8.00;98.00;;;;;;5024698;28;20044;-64
2022/12/13 06:07:36;;;;;;;21.63;10.57;;;-8.00;98.00;;;;;;5033316;28;20299;-65
2022/12/13 06:10:03;;;;;;;20.38;11.30;;;-7.70;98.00;;;;;;5036895;28;20057;-65
2022/12/13 06:12:28;;;;;;;26.35;12.93;;;-7.40;98.00;;;;;;5034892;28;20053;-65
2022/12/13 06:14:54;;;;;;;18.83;10.07;;;-7.20;97.70;;;;;;5017075;28;20452;-65
2022/12/13 06:17:23;;;;;;;20.63;10.55;;;-7.20;97.10;;;;;;5033716;28;20060;-65
2022/12/13 06:19:54;;;;;;;21.00;10.40;;;-7.10;96.70;;;;;;5033519;28;20029;-65
2022/12/13 06:22:22;;;;;;;19.52;10.32;;;-7.10;96.40;;;;;;4985766;28;1071328;-65
2022/12/13 06:24:47;;;;;;;17.15;9.00;;;-7.20;96.40;;;;;;5026383;28;20033;-65
2022/12/13 06:27:13;;;;;;;16.40;9.40;;;-7.20;96.70;;;;;;5035631;28;20022;-65
2022/12/13 06:29:38;;;;;;;17.65;9.38;;;-7.10;96.50;;;;;;5033981;28;20025;-65
2022/12/13 06:32:04;;;;;;;17.48;9.40;;;-7.10;96.30;;;;;;5036670;28;20041;-66
2022/12/13 06:34:34;;;;;;;20.35;10.80;;;-7.30;96.30;;;;;;5034286;28;20147;-65
2022/12/13 06:37:01;;;;;;;17.50;9.43;;;-7.20;96.70;;;;;;5036355;28;20041;-66
2022/12/13 06:39:28;;;;;;;23.50;13.02;;;-7.30;96.70;;;;;;5034642;28;20057;-65
2022/12/13 06:41:54;;;;;;;19.77;11.82;;;-7.40;96.80;;;;;;5026341;28;20086;-65
2022/12/13 06:44:20;;;;;;;21.05;11.38;;;-7.50;97.40;;;;;;5037940;28;20033;-66
2022/12/13 06:46:45;;;;;;;26.48;14.40;;;-7.40;97.60;;;;;;5020998;28;20026;-65
2022/12/13 06:49:11;;;;;;;25.58;15.55;;;-7.60;97.30;;;;;;5021924;28;20244;-65
2022/12/13 06:51:36;;;;;;;23.48;14.02;;;-7.90;97.70;;;;;;5034146;28;20299;-66
2022/12/13 06:54:02;;;;;;;26.35;13.10;;;-8.30;98.00;;;;;;5035192;28;20029;-64
2022/12/13 06:56:29;;;;;;;31.27;14.85;;;-8.50;98.00;;;;;;5033431;28;20060;-64
2022/12/13 06:58:57;;;;;;;30.30;16.58;;;-8.50;98.00;;;;;;5033970;28;20033;-64
2022/12/13 07:01:23;;;;;;;23.00;13.80;;;-8.60;98.00;;;;;;5029725;28;20048;-64
2022/12/13 07:03:49;;;;;;;27.50;13.43;;;-8.50;98.00;;;;;;5035612;28;20295;-63
2022/12/13 07:06:19;;;;;;;24.83;13.57;;;-8.50;98.00;;;;;;5037490;28;20044;-64
2022/12/13 07:08:51;;;;;;;28.25;15.88;;;-8.30;98.00;;;;;;5041694;28;20025;-64
2022/12/13 07:11:18;;;;;;;28.25;15.23;;;-8.30;98.00;;;;;;5035662;28;20032;-64
2022/12/13 07:13:44;;;;;;;28.48;14.65;;;-8.40;98.00;;;;;;5032113;28;20026;-64
2022/12/13 07:16:11;;;;;;;22.52;11.90;;;-8.50;98.00;;;;;;5020056;28;20056;-64
2022/12/13 07:18:39;;;;;;;25.33;13.80;;;-8.30;98.00;;;;;;5031253;28;20051;-64
2022/12/13 07:21:07;;;;;;;26.70;14.43;;;-8.10;98.00;;;;;;5025425;28;20430;-65
2022/12/13 07:23:37;;;;;;;23.73;13.65;;;-8.20;98.00;;;;;;5040064;28;20110;-64
2022/12/13 07:26:03;;;;;;;23.15;12.40;;;-8.40;98.00;;;;;;5035388;28;20033;-65
2022/12/13 07:28:32;;;;;;;25.70;12.57;;;-8.40;98.00;;;;;;5031286;28;20026;-64
2022/12/13 07:31:00;;;;;;;24.52;13.98;;;-8.20;98.00;;;;;;5035215;28;20084;-64
2022/12/13 07:33:28;;;;;;;22.75;11.70;;;-8.30;98.00;;;;;;5032620;28;20030;-65
2022/12/13 07:36:00;;;;;;;29.75;14.68;;;-8.30;98.00;;;;;;5054388;28;20029;-65
2022/12/13 07:38:26;;;;;;;22.15;13.02;;;-8.40;98.00;;;;;;5053541;28;20025;-65
2022/12/13 07:40:55;;;;;;;21.52;11.20;;;-8.40;98.00;;;;;;5055140;28;20112;-65
2022/12/13 07:43:20;;;;;;;23.92;13.10;;;-8.10;98.00;;;;;;5049003;28;20040;-65
2022/12/13 07:45:46;;;;;;;23.85;13.52;;;-7.90;98.00;;;;;;5035961;28;20021;-65
2022/12/13 07:48:12;;;;;;;28.55;17.13;;;-8.00;98.00;;;;;;5035213;28;20052;-65
2022/12/13 07:50:38;;;;;;;24.38;14.52;;;-8.00;98.00;;;;;;5035903;28;20098;-65
2022/12/13 07:53:06;;;;;;;24.33;14.25;;;-8.00;98.00;;;;;;5035119;28;20117;-65
2022/12/13 07:55:32;;;;;;;22.17;11.63;;;-8.00;98.00;;;;;;5016253;28;20062;-65
2022/12/13 07:58:11;;;;;;;34.80;17.27;;;-7.80;98.00;;;;;;5015082;28;20743;-65
2022/12/13 08:00:39;;;;;;;224.85;75.38;;;-7.60;98.00;;;;;;5016150;28;20326;-64
2022/12/13 08:03:06;;;;;;;57.88;24.05;;;-7.40;98.00;;;;;;5030456;28;20128;-65
2022/12/13 08:05:32;;;;;;;16.95;9.80;;;-7.20;98.00;;;;;;5034861;28;20090;-66
2022/12/13 08:08:00;;;;;;;25.08;13.70;;;-6.90;97.50;;;;;;5034909;28;20029;-65
2022/12/13 08:10:29;;;;;;;21.38;11.35;;;-6.60;96.10;;;;;;5035493;28;20025;-64
2022/12/13 08:12:55;;;;;;;17.00;9.32;;;-6.50;95.50;;;;;;5034803;28;20029;-64
2022/12/13 08:15:21;;;;;;;20.13;10.35;;;-6.40;94.90;;;;;;5035796;28;20033;-64
2022/12/13 08:17:50;;;;;;;18.27;10.35;;;-6.30;94.80;;;;;;5035773;28;20022;-64
2022/12/13 08:20:16;;;;;;;19.35;9.82;;;-6.20;94.10;;;;;;5035634;28;20060;-65
2022/12/13 08:22:42;;;;;;;20.05;10.02;;;-6.10;93.60;;;;;;5034493;28;20044;-64
2022/12/13 08:25:08;;;;;;;19.95;10.80;;;-6.00;93.60;;;;;;5016713;28;20033;-65
2022/12/13 08:27:34;;;;;;;20.13;9.98;;;-5.90;93.30;;;;;;5013731;28;20030;-64
2022/12/13 08:30:00;;;;;;;18.95;9.68;;;-5.80;92.50;;;;;;5015809;28;20127;-63
2022/12/13 08:32:26;;;;;;;16.65;9.30;;;-5.60;92.20;;;;;;5013909;28;20145;-63
2022/12/13 08:34:52;;;;;;;17.85;10.30;;;-5.50;91.60;;;;;;5016759;28;20304;-63
2022/12/13 08:37:17;;;;;;;18.00;10.48;;;-5.50;91.80;;;;;;5015401;28;20108;-65
2022/12/13 08:39:46;;;;;;;26.23;11.88;;;-5.50;91.70;;;;;;5017211;28;20033;-64
2022/12/13 08:42:16;;;;;;;22.23;11.55;;;-5.50;91.80;;;;;;5013904;28;20037;-64
2022/12/13 08:44:42;;;;;;;20.20;11.25;;;-5.30;91.20;;;;;;5005848;28;20453;-64
2022/12/13 08:47:07;;;;;;;19.83;10.60;;;-5.20;90.90;;;;;;5035260;28;20104;-65
2022/12/13 08:49:33;;;;;;;20.17;10.38;;;-5.20;90.40;;;;;;5035308;28;20032;-65
2022/12/13 08:51:59;;;;;;;17.48;9.75;;;-5.10;90.00;;;;;;5035355;28;20026;-64
2022/12/13 08:54:24;;;;;;;17.33;10.15;;;-5.10;89.90;;;;;;5021243;28;20095;-64
2022/12/13 08:56:50;;;;;;;21.23;10.40;;;-5.10;90.00;;;;;;5015005;28;20455;-64
2022/12/13 08:59:17;;;;;;;19.13;10.18;;;-5.00;89.30;;;;;;5012755;28;20056;-64
2022/12/13 09:01:43;;;;;;;19.83;10.50;;;-4.90;89.20;;;;;;5018850;28;20029;-64
2022/12/13 09:04:08;;;;;;;17.92;9.23;;;-4.90;89.30;;;;;;5012230;28;20095;-64
2022/12/13 09:06:34;;;;;;;17.40;9.93;;;-4.70;88.80;;;;;;5013258;28;20434;-64
2022/12/13 09:09:02;;;;;;;18.25;9.00;;;-4.50;88.10;;;;;;5010946;28;20045;-64
2022/12/13 09:11:28;;;;;;;18.70;9.80;;;-4.30;87.50;;;;;;5013678;28;20045;-64
2022/12/13 09:13:54;;;;;;;19.17;9.50;;;-4.00;86.70;;;;;;5041608;28;20038;-65
2022/12/13 09:16:23;;;;;;;20.08;9.93;;;-3.60;85.60;;;;;;5043212;28;21117;-64
2022/12/13 09:18:50;;;;;;;17.58;10.15;;;-3.60;84.50;;;;;;5057001;28;20325;-65
2022/12/13 09:21:16;;;;;;;17.20;8.93;;;-3.50;84.00;;;;;;5050192;28;20048;-64
2022/12/13 09:23:42;;;;;;;18.08;8.45;;;-3.60;84.10;;;;;;5053958;28;20373;-65
2022/12/13 09:26:09;;;;;;;20.15;9.45;;;-3.60;84.10;;;;;;5057360;28;20148;-65
2022/12/13 09:28:36;;;;;;;20.00;9.15;;;-3.60;84.10;;;;;;5043883;28;20128;-66
2022/12/13 09:31:22;;;;;;;15.48;8.52;;;-3.90;84.60;;;;;;5048478;28;20033;-65
2022/12/13 09:33:47;;;;;;;17.10;9.95;;;-4.00;85.30;;;;;;5044212;28;20032;-65
2022/12/13 09:36:18;;;;;;;17.33;8.98;;;-3.90;85.00;;;;;;5051142;28;20026;-64
2022/12/13 09:38:44;;;;;;;15.23;8.88;;;-3.70;84.60;;;;;;5052302;28;20037;-65
2022/12/13 09:41:25;;;;;;;17.98;8.90;;;-3.60;84.00;;;;;;5039062;28;20033;-65
2022/12/13 09:44:10;;;;;;;17.88;10.00;;;-3.60;84.10;;;;;;5043348;28;20129;-65
2022/12/13 09:46:43;;;;;;;17.60;9.25;;;-3.40;83.90;;;;;;5032985;28;20025;-65
2022/12/13 09:49:17;;;;;;;20.77;10.37;;;-3.50;84.00;;;;;;5047736;28;20025;-65
2022/12/13 09:51:47;;;;;;;19.58;10.07;;;-3.60;84.00;;;;;;5051177;28;20337;-65
2022/12/13 09:54:18;;;;;;;18.83;9.82;;;-3.60;84.10;;;;;;5044591;28;20036;-65
2022/12/13 09:56:49;;;;;;;15.27;9.20;;;-3.50;83.90;;;;;;5020917;28;20499;-65
2022/12/13 09:59:16;;;;;;;18.58;9.73;;;-3.50;83.80;;;;;;5037069;28;20314;-65
2022/12/13 10:01:41;;;;;;;23.15;10.90;;;-3.40;84.30;;;;;;5038116;28;20034;-65
2022/12/13 10:04:11;;;;;;;19.13;10.60;;;-3.30;83.20;;;;;;5047123;28;20032;-65
2022/12/13 10:06:37;;;;;;;22.75;10.85;;;-3.20;83.00;;;;;;5051264;28;20025;-65
2022/12/13 10:09:08;;;;;;;18.77;10.80;;;-3.10;83.50;;;;;;5052115;28;20425;-65
2022/12/13 10:11:34;;;;;;;19.73;11.13;;;-3.10;83.50;;;;;;5051463;28;20051;-64
2022/12/13 10:14:27;;;;;;;19.65;10.75;;;-3.20;83.20;;;;;;5056721;28;20025;-65
2022/12/13 10:16:58;;;;;;;17.00;9.80;;;-3.10;83.70;;;;;;5049030;28;20119;-65
2022/12/13 10:19:40;;;;;;;19.77;11.35;;;-2.90;83.00;;;;;;5021158;28;20076;-66
2022/12/13 10:22:11;;;;;;;19.45;10.02;;;-2.40;82.00;;;;;;5037830;28;20106;-65
2022/12/13 10:24:56;;;;;;;19.42;10.50;;;-2.10;80.60;;;;;;5044730;28;20021;-65
2022/12/13 10:27:25;;;;;;;19.10;9.45;;;-2.00;79.80;;;;;;5042074;28;20028;-65
2022/12/13 10:30:07;;;;;;;16.63;9.32;;;-1.90;80.00;;;;;;5046449;28;20326;-65
2022/12/13 10:33:02;;;;;;;16.33;9.73;;;-1.90;79.10;;;;;;5048003;28;20032;-64
2022/12/13 10:35:33;;;;;;;18.33;9.25;;;-2.10;79.20;;;;;;5045701;28;20044;-65
2022/12/13 10:38:01;;;;;;;15.80;8.98;;;-2.30;79.70;;;;;;5050618;28;20021;-65
2022/12/13 10:40:30;;;;;;;15.98;9.75;;;-2.50;79.90;;;;;;5053497;28;20369;-65
2022/12/13 10:43:27;;;;;;;14.95;8.70;;;-2.40;80.40;;;;;;5051212;28;20231;-65
2022/12/13 10:45:59;;;;;;;18.08;9.00;;;-2.10;79.40;;;;;;5049390;28;20396;-65
2022/12/13 10:48:49;;;;;;;19.30;9.43;;;-2.00;78.90;;;;;;5053988;28;20108;-65
2022/12/13 10:51:20;;;;;;;20.33;10.10;;;-1.90;78.90;;;;;;5041338;28;20144;-65
2022/12/13 10:53:55;;;;;;;25.30;12.80;;;-1.80;77.50;;;;;;5020954;28;20025;-65
2022/12/13 10:56:31;;;;;;;24.55;12.23;;;-1.90;77.60;;;;;;5017440;28;20122;-65
2022/12/13 10:59:22;;;;;;;20.20;11.82;;;-1.70;78.00;;;;;;5052571;28;20033;-65
2022/12/13 11:01:47;;;;;;;20.77;11.55;;;-1.40;77.30;;;;;;5047271;28;20044;-65
2022/12/13 11:04:32;;;;;;;17.58;9.48;;;-1.00;76.00;;;;;;5051513;28;20661;-65
2022/12/13 11:07:00;;;;;;;16.30;7.90;;;-1.00;75.00;;;;;;5035595;28;20272;-65
2022/12/13 11:09:34;;;;;;;16.67;8.65;;;-0.90;75.90;;;;;;5036620;28;20028;-65
2022/12/13 11:12:02;;;;;;;11.60;7.47;;;-0.70;74.80;;;;;;5045432;28;20037;-65
2022/12/13 11:14:38;;;;;;;13.80;7.60;;;-0.60;74.20;;;;;;5055480;28;20115;-65
2022/12/13 11:17:13;;;;;;;11.82;6.95;;;-0.70;73.60;;;;;;5044042;28;20036;-66
2022/12/13 11:19:44;;;;;;;13.40;7.05;;;-1.10;74.60;;;;;;5054747;28;20024;-65
2022/12/13 11:22:21;;;;;;;14.00;7.78;;;-1.20;75.00;;;;;;5048274;28;20044;-64
2022/12/13 11:25:15;;;;;;;14.00;7.22;;;-1.30;75.50;;;;;;5041216;28;20090;-63
2022/12/13 11:28:12;;;;;;;15.85;8.05;;;-1.40;76.50;;;;;;5042270;28;20044;-64
2022/12/13 11:30:59;;;;;;;12.88;7.22;;;-0.90;75.90;;;;;;5055447;28;20029;-64
2022/12/13 11:33:43;;;;;;;14.07;7.38;;;-0.70;74.50;;;;;;5047561;28;20025;-65
2022/12/13 11:36:44;;;;;;;14.10;7.70;;;-0.40;73.90;;;;;;5053776;28;20352;-65
2022/12/13 11:39:23;;;;;;;12.82;7.40;;;-0.20;74.10;;;;;;5045937;28;20039;-65
2022/12/13 11:41:54;;;;;;;12.88;7.30;;;-0.10;73.40;;;;;;5054019;28;20033;-66
2022/12/13 11:44:44;;;;;;;12.57;6.72;;;0.10;73.10;;;;;;5054953;28;20044;-66
2022/12/13 11:47:18;;;;;;;14.57;7.10;;;0.20;72.40;;;;;;5045580;28;20028;-65
2022/12/13 11:49:46;;;;;;;17.38;6.85;;;0.50;72.40;;;;;;5051858;28;20571;-65
2022/12/13 11:52:29;;;;;;;14.30;7.82;;;0.80;71.70;;;;;;5087449;22;20057;-65
2022/12/13 11:55:16;;;;;;;18.13;10.48;;;0.80;71.00;;;;;;5055731;28;20021;-64
2022/12/13 11:57:53;;;;;;;29.80;15.38;;;0.70;72.70;;;;;;5053868;28;20025;-64
2022/12/13 12:00:44;;;;;;;13.80;8.27;;;0.90;75.10;;;;;;5054534;28;20048;-64
2022/12/13 12:03:34;;;;;;;27.15;15.40;;;0.90;74.20;;;;;;5053302;28;20298;-64
2022/12/13 12:06:19;;;;;;;23.92;14.80;;;0.90;74.30;;;;;;5038556;28;20025;-65
2022/12/13 12:08:52;;;;;;;30.23;18.35;;;0.90;77.80;;;;;;5047429;28;20025;-64
2022/12/13 12:11:36;;;;;;;33.88;18.70;;;0.30;79.40;;;;;;5051774;28;20103;-64
2022/12/13 12:14:32;;;;;;;30.25;17.58;;;0.00;80.70;;;;;;5054441;28;20040;-65
2022/12/13 12:16:58;;;;;;;17.60;10.27;;;-0.20;82.30;;;;;;5036915;28;20124;-65
2022/12/13 12:19:37;;;;;;;28.80;16.88;;;-0.20;80.30;;;;;;5051577;28;20448;-66
2022/12/13 12:22:27;;;;;;;32.63;17.95;;;-0.30;78.90;;;;;;5044228;28;20345;-65
2022/12/13 12:25:11;;;;;;;26.35;14.38;;;-0.40;82.30;;;;;;5050253;28;20121;-65
2022/12/13 12:27:57;;;;;;;31.95;18.30;;;-0.60;81.70;;;;;;5044257;28;20024;-65
2022/12/13 12:30:54;;;;;;;36.90;19.73;;;-0.70;83.40;;;;;;5003868;28;20037;-63
2022/12/13 12:33:39;;;;;;;44.92;25.88;;;-0.80;84.40;;;;;;5042839;28;20375;-64
2022/12/13 12:36:29;;;;;;;37.13;20.10;;;-0.90;85.00;;;;;;5052088;28;20103;-63
2022/12/13 12:39:01;;;;;;;33.70;19.13;;;-1.00;85.70;;;;;;5054778;28;20057;-64
2022/12/13 12:41:50;;;;;;;34.63;18.52;;;-0.80;85.40;;;;;;5054339;28;20083;-64
2022/12/13 12:44:25;;;;;;;27.40;16.52;;;-0.60;84.50;;;;;;5053272;28;20112;-64
2022/12/13 12:47:20;;;;;;;32.15;17.42;;;-0.50;84.10;;;;;;5051633;28;20504;-65
2022/12/13 12:49:53;;;;;;;32.30;18.48;;;-0.60;81.90;;;;;;5052593;28;20029;-64
2022/12/13 12:52:56;;;;;;;37.67;20.35;;;-0.60;83.40;;;;;;5051992;28;20448;-63
2022/12/13 12:55:34;;;;;;;36.97;20.40;;;-0.70;83.90;;;;;;5056068;28;20056;-64
2022/12/13 12:58:23;;;;;;;34.63;20.00;;;-0.90;84.00;;;;;;5055502;28;20040;-64